Time;durP1;ratioP1;P1;durP2;ratioP2;P2;SDS_P1;SDS_P2;PMS_P1;PMS_P2;Temp;Humidity;BMP_temperature;BMP_pressure;BME280_temperature;BME280_humidity;BME280_pressure;Samples;Min_cycle;Max_cycle;Signal;HPM_P1;HPM_P2
2023/03/10 00:00:41;;;;;;;3.67;1.40;;;;;;;11.18;59.81;98574.28;4455103;32;20120;-88
2023/03/10 00:03:07;;;;;;;4.82;1.40;;;;;;;10.98;59.80;98574.50;4442512;32;20149;-86
2023/03/10 00:05:32;;;;;;;5.22;1.80;;;;;;;10.82;59.79;98565.78;4469536;32;20339;-88
2023/03/10 00:07:58;;;;;;;2.40;1.20;;;;;;;10.67;59.78;98564.84;4454788;32;20394;-89
2023/03/10 00:10:23;;;;;;;3.08;1.40;;;;;;;10.60;59.77;98561.69;4454458;32;20122;-88
2023/03/10 00:12:49;;;;;;;5.90;1.42;;;;;;;10.64;59.79;98557.16;4442054;32;20165;-89
2023/03/10 00:15:14;;;;;;;5.22;1.67;;;;;;;10.56;59.77;98560.16;4441840;32;20300;-89
2023/03/10 00:17:40;;;;;;;4.50;1.58;;;;;;;10.49;59.77;98565.78;4454705;32;20137;-87
2023/03/10 00:20:07;;;;;;;3.20;1.45;;;;;;;10.45;59.77;98562.50;4431917;32;20093;-88
2023/03/10 00:22:33;;;;;;;5.45;2.30;;;;;;;10.65;59.78;98567.53;4469346;32;20182;-88
2023/03/10 00:24:59;;;;;;;5.37;2.12;;;;;;;10.60;59.77;98569.50;4454334;32;20131;-88
2023/03/10 00:27:24;;;;;;;5.68;2.22;;;;;;;10.45;59.77;98570.28;4441950;32;20361;-87
2023/03/10 00:29:50;;;;;;;5.87;2.42;;;;;;;10.28;59.76;98562.47;4468939;32;20069;-88
2023/03/10 00:32:16;;;;;;;8.07;2.75;;;;;;;10.16;59.75;98564.72;4441685;32;20105;-88
2023/03/10 00:34:41;;;;;;;6.87;2.15;;;;;;;9.87;59.73;98556.66;4441677;32;20184;-88
2023/03/10 00:37:06;;;;;;;7.07;2.28;;;;;;;9.55;59.71;98561.63;4428780;32;20128;-89
2023/03/10 00:39:32;;;;;;;4.12;2.10;;;;;;;9.59;59.72;98557.97;4428783;32;20085;-89
2023/03/10 00:41:58;;;;;;;7.82;2.75;;;;;;;9.64;59.73;98549.97;4467530;32;20124;-88
2023/03/10 00:44:24;;;;;;;5.00;2.05;;;;;;;9.47;59.71;98553.37;4454546;32;20385;-88
2023/03/10 00:46:49;;;;;;;5.45;2.37;;;;;;;9.51;59.72;98554.91;4441887;32;20092;-88
2023/03/10 00:49:15;;;;;;;5.47;2.22;;;;;;;9.64;59.71;98539.56;4441356;32;20353;-89
2023/03/10 00:51:40;;;;;;;5.05;2.67;;;;;;;9.67;59.73;98537.66;4428817;32;20139;-88
2023/03/10 00:54:06;;;;;;;4.30;2.30;;;;;;;9.61;59.72;98537.97;4454388;32;20504;-89
2023/03/10 00:56:31;;;;;;;6.00;2.50;;;;;;;9.44;59.71;98543.09;4428877;32;20432;-89
2023/03/10 00:58:58;;;;;;;5.87;2.83;;;;;;;9.35;59.71;98543.53;4441730;32;20704;-89
2023/03/10 01:01:27;;;;;;;4.47;2.28;;;;;;;9.16;59.70;98544.38;4454797;32;20109;-89
2023/03/10 01:03:54;;;;;;;4.55;1.73;;;;;;;9.09;59.69;98542.12;4454466;32;20156;-88
2023/03/10 01:06:20;;;;;;;4.45;1.80;;;;;;;9.06;59.69;98542.28;4441675;32;20097;-88
2023/03/10 01:08:45;;;;;;;8.32;2.20;;;;;;;9.28;59.70;98535.19;4441167;32;20164;-89
2023/03/10 01:11:15;;;;;;;5.93;1.83;;;;;;;9.27;59.71;98525.72;4441546;32;20157;-86
2023/03/10 01:13:41;;;;;;;3.12;1.55;;;;;;;8.93;59.68;98536.78;4431439;32;20164;-88
2023/03/10 01:16:06;;;;;;;6.15;2.25;;;;;;;8.95;59.68;98523.72;4428777;32;20437;-89
2023/03/10 01:18:32;;;;;;;4.12;1.45;;;;;;;8.79;59.67;98524.44;4468646;32;20073;-88
2023/03/10 01:20:57;;;;;;;5.32;1.60;;;;;;;8.70;59.67;98516.19;4441300;32;20120;-88
2023/03/10 01:23:24;;;;;;;7.22;1.98;;;;;;;8.74;59.67;98518.56;4428432;32;20124;-89
2023/03/10 01:25:49;;;;;;;5.37;1.60;;;;;;;8.55;59.66;98515.13;4441807;32;20152;-89
2023/03/10 01:28:15;;;;;;;3.20;1.50;;;;;;;8.57;59.66;98510.72;4428765;32;20149;-88
2023/03/10 01:30:41;;;;;;;6.15;1.60;;;;;;;8.43;59.65;98513.91;4453929;32;20131;-89
2023/03/10 01:33:06;;;;;;;5.82;1.80;;;;;;;8.35;59.65;98508.22;4468530;32;20441;-87
2023/03/10 01:35:32;;;;;;;3.95;1.48;;;;;;;8.35;59.65;98499.59;4441235;32;20126;-88
2023/03/10 01:37:57;;;;;;;6.18;1.85;;;;;;;8.32;59.65;98500.53;4428182;32;20486;-89
2023/03/10 01:40:23;;;;;;;3.40;1.48;;;;;;;8.41;59.65;98494.97;4428209;32;20743;-88
2023/03/10 01:42:48;;;;;;;3.87;1.45;;;;;;;8.33;59.65;98494.44;4441249;32;20113;-88
2023/03/10 01:45:14;;;;;;;3.60;1.33;;;;;;;8.37;59.65;98487.41;4428347;32;20089;-89
2023/03/10 01:47:40;;;;;;;6.97;2.00;;;;;;;8.20;59.64;98488.91;4453894;32;20116;-88
2023/03/10 01:50:06;;;;;;;2.95;1.80;;;;;;;8.07;59.64;98487.75;4440976;32;20752;-88
2023/03/10 01:52:31;;;;;;;2.10;1.00;;;;;;;8.15;59.64;98485.69;4440717;32;21270;-89
2023/03/10 01:55:14;;;;;;;2.22;1.10;;;;;;;8.05;59.63;98479.22;4440953;32;20122;-89
2023/03/10 01:57:41;;;;;;;7.05;1.62;;;;;;;7.90;59.62;98477.25;4444141;32;20085;-89
2023/03/10 02:00:11;;;;;;;3.80;1.70;;;;;;;7.98;59.62;98475.19;4432054;32;173002;-88
2023/03/10 02:02:39;;;;;;;3.42;1.08;;;;;;;7.92;59.63;98468.50;4444025;32;20117;-88
2023/03/10 02:05:05;;;;;;;3.45;1.33;;;;;;;7.74;59.61;98466.66;4455875;32;20105;-87
2023/03/10 02:07:30;;;;;;;2.67;1.33;;;;;;;7.69;59.61;98463.44;4442827;32;20128;-86
2023/03/10 02:09:55;;;;;;;5.30;1.83;;;;;;;7.78;59.62;98468.22;4443168;32;20147;-86
2023/03/10 02:12:21;;;;;;;4.80;1.25;;;;;;;7.62;59.61;98464.59;4430001;32;20152;-88
2023/03/10 02:14:46;;;;;;;3.92;1.42;;;;;;;7.48;59.61;98461.72;4442879;32;20112;-87
2023/03/10 02:17:15;;;;;;;5.50;1.23;;;;;;;7.56;59.61;98460.47;4442737;32;20151;-87
2023/03/10 02:19:47;;;;;;;4.53;1.77;;;;;;;7.67;59.61;98454.88;4455958;32;20101;-87
2023/03/10 02:22:14;;;;;;;5.45;1.60;;;;;;;7.63;59.61;98454.16;4455782;32;20127;-87
2023/03/10 02:24:45;;;;;;;4.30;1.15;;;;;;;7.68;59.61;98449.62;4455847;32;20123;-87
2023/03/10 02:27:23;;;;;;;3.35;1.50;;;;;;;7.74;59.61;98443.34;4470217;32;20104;-87
2023/03/10 02:29:59;;;;;;;4.32;1.50;;;;;;;7.54;59.60;98445.91;4466546;32;20101;-86
2023/03/10 02:32:25;;;;;;;3.50;1.48;;;;;;;7.54;59.61;98439.00;4440424;32;20109;-87
2023/03/10 02:34:50;;;;;;;3.75;1.83;;;;;;;7.41;59.60;98443.00;4442329;32;20370;-86
2023/03/10 02:37:27;;;;;;;3.22;1.42;;;;;;;7.42;59.60;98439.50;4442850;32;20118;-87
2023/03/10 02:39:52;;;;;;;2.10;1.08;;;;;;;7.37;59.59;98444.03;4433266;32;20092;-88
2023/03/10 02:42:18;;;;;;;6.85;1.50;;;;;;;7.43;59.60;98438.59;4438339;32;20145;-88
2023/03/10 02:44:43;;;;;;;2.53;1.40;;;;;;;7.35;59.59;98435.47;4443090;32;20096;-88
2023/03/10 02:47:09;;;;;;;4.40;1.02;;;;;;;7.42;59.60;98433.47;4429581;32;20722;-88
2023/03/10 02:49:34;;;;;;;3.37;1.45;;;;;;;7.39;59.60;98432.69;4443141;32;20105;-88
2023/03/10 02:52:00;;;;;;;5.82;1.85;;;;;;;7.30;59.59;98427.03;4455839;32;20445;-88
2023/03/10 02:54:25;;;;;;;6.68;2.53;;;;;;;7.26;59.59;98431.50;4442576;32;20441;-88
2023/03/10 02:56:51;;;;;;;4.65;2.80;;;;;;;7.19;59.59;98429.22;4442585;32;20642;-86
2023/03/10 02:59:16;;;;;;;4.55;2.22;;;;;;;7.19;59.59;98430.06;4455776;32;20472;-87
2023/03/10 03:01:41;;;;;;;6.05;2.15;;;;;;;7.15;59.58;98419.91;4442397;32;20572;-89
2023/03/10 03:04:07;;;;;;;6.05;2.12;;;;;;;7.18;59.59;98420.63;4437596;32;20101;-87
2023/03/10 03:06:32;;;;;;;4.35;2.47;;;;;;;7.02;59.58;98412.59;4445796;32;20159;-88
2023/03/10 03:08:58;;;;;;;3.28;1.55;;;;;;;7.16;59.58;98408.66;4435081;32;20101;-87
2023/03/10 03:11:23;;;;;;;4.43;1.77;;;;;;;7.26;59.59;98400.44;4442609;32;20163;-87
2023/03/10 03:13:49;;;;;;;6.35;2.37;;;;;;;7.53;59.60;98397.62;4442196;32;20786;-87
2023/03/10 03:16:14;;;;;;;6.97;2.03;;;;;;;7.37;59.59;98392.25;4428554;32;20544;-87
2023/03/10 03:18:40;;;;;;;6.28;2.17;;;;;;;7.31;59.60;98393.31;4455086;32;20405;-88
2023/03/10 03:21:06;;;;;;;3.30;1.67;;;;;;;7.29;59.59;98383.94;4469740;32;20564;-87
2023/03/10 03:23:32;;;;;;;3.12;1.85;;;;;;;7.12;59.58;98387.22;4455446;32;20081;-87
2023/03/10 03:25:58;;;;;;;4.25;1.62;;;;;;;7.08;59.57;98385.63;4429925;32;20092;-89
2023/03/10 03:28:23;;;;;;;4.82;1.62;;;;;;;7.01;59.57;98376.44;4442563;32;20188;-87
2023/03/10 03:30:49;;;;;;;3.50;1.42;;;;;;;6.84;59.56;98377.09;4469734;32;20557;-88
2023/03/10 03:33:14;;;;;;;3.30;1.60;;;;;;;6.83;59.56;98375.41;4455349;32;20115;-87
2023/03/10 03:35:40;;;;;;;3.10;1.40;;;;;;;6.93;59.57;98370.75;4442657;32;20119;-87
2023/03/10 03:38:05;;;;;;;2.83;1.20;;;;;;;6.85;59.57;98370.16;4437093;32;20203;-86
2023/03/10 03:40:34;;;;;;;10.13;2.25;;;;;;;6.85;59.57;98357.25;4453044;32;20192;-87
2023/03/10 03:43:00;;;;;;;4.47;1.50;;;;;;;6.64;59.55;98356.34;4445581;32;20089;-87
2023/03/10 03:45:26;;;;;;;5.75;1.50;;;;;;;6.66;59.56;98346.78;4442160;32;20166;-86
2023/03/10 03:47:52;;;;;;;4.57;1.90;;;;;;;6.74;59.56;98347.34;4445310;32;20143;-87
2023/03/10 03:50:18;;;;;;;3.22;1.70;;;;;;;6.94;59.57;98346.56;4455212;32;20108;-87
2023/03/10 03:52:43;;;;;;;3.20;1.60;;;;;;;6.78;59.56;98344.56;4442373;32;20100;-87
2023/03/10 03:55:09;;;;;;;4.07;1.27;;;;;;;6.64;59.55;98348.59;4455083;32;20405;-87
2023/03/10 03:57:34;;;;;;;3.15;1.58;;;;;;;6.71;59.55;98331.94;4455276;32;20131;-86
2023/03/10 04:00:00;;;;;;;2.60;1.02;;;;;;;6.53;59.54;98324.87;4442305;32;20173;-86
2023/03/10 04:02:26;;;;;;;4.00;1.20;;;;;;;6.59;59.55;98337.56;4442282;32;20107;-87
2023/03/10 04:04:54;;;;;;;7.37;1.75;;;;;;;6.70;59.55;98328.50;4455329;32;20116;-87
2023/03/10 04:07:19;;;;;;;4.72;2.55;;;;;;;6.76;59.56;98323.09;4411592;32;20596;-87
2023/03/10 04:09:45;;;;;;;4.85;2.08;;;;;;;6.49;59.54;98320.75;4445356;32;20180;-87
2023/03/10 04:12:10;;;;;;;6.65;2.30;;;;;;;6.33;59.53;98318.72;4442084;32;20121;-87
2023/03/10 04:14:36;;;;;;;7.68;2.37;;;;;;;6.23;59.53;98313.97;4455521;32;20085;-87
2023/03/10 04:17:02;;;;;;;7.22;2.67;;;;;;;6.25;59.53;98307.84;4442415;32;20116;-86
2023/03/10 04:19:27;;;;;;;13.85;2.10;;;;;;;6.47;59.54;98313.03;4469614;32;20172;-86
2023/03/10 04:21:52;;;;;;;7.22;2.70;;;;;;;6.47;59.54;98311.31;4442126;32;20084;-86
2023/03/10 04:24:18;;;;;;;7.78;3.03;;;;;;;6.55;59.55;98311.00;4455081;32;20127;-87
2023/03/10 04:26:43;;;;;;;5.78;2.78;;;;;;;6.52;59.55;98315.44;4454442;32;20104;-87
2023/03/10 04:29:09;;;;;;;7.60;2.60;;;;;;;6.46;59.54;98309.63;4442651;32;20101;-87
2023/03/10 04:31:35;;;;;;;5.35;2.92;;;;;;;6.34;59.53;98312.66;4439948;32;20159;-86
2023/03/10 04:34:00;;;;;;;10.15;3.45;;;;;;;6.39;59.54;98309.94;4459950;32;20454;-87
2023/03/10 04:36:25;;;;;;;10.75;3.40;;;;;;;6.46;59.54;98306.19;4430156;32;20145;-87
2023/03/10 04:38:51;;;;;;;10.13;3.80;;;;;;;6.38;59.54;98305.62;4442352;32;20114;-87
2023/03/10 04:41:16;;;;;;;10.05;2.90;;;;;;;6.39;59.54;98313.34;4454112;32;20125;-87
2023/03/10 04:43:42;;;;;;;7.97;3.20;;;;;;;6.46;59.54;98301.03;4454646;32;20192;-87
2023/03/10 04:46:07;;;;;;;5.97;2.70;;;;;;;6.38;59.53;98301.28;4454346;32;20401;-86
2023/03/10 04:48:33;;;;;;;8.02;2.90;;;;;;;6.33;59.53;98299.78;4454795;32;20198;-86
2023/03/10 04:51:03;;;;;;;8.30;3.35;;;;;;;6.57;59.55;98296.25;4431120;32;20130;-87
2023/03/10 04:53:29;;;;;;;6.68;3.42;;;;;;;6.52;59.54;98298.19;4455115;32;20119;-87
2023/03/10 04:55:55;;;;;;;9.30;3.67;;;;;;;6.49;59.54;98289.72;4454865;32;20175;-87
2023/03/10 04:58:21;;;;;;;9.05;3.60;;;;;;;6.42;59.54;98289.97;4469022;32;20133;-86
2023/03/10 05:00:47;;;;;;;8.85;3.22;;;;;;;6.45;59.54;98289.00;4441599;32;20124;-88
2023/03/10 05:03:12;;;;;;;8.13;3.60;;;;;;;6.36;59.54;98292.75;4429789;32;20151;-88
2023/03/10 05:05:38;;;;;;;12.70;3.67;;;;;;;6.35;59.54;98291.09;4441134;32;20154;-86
2023/03/10 05:08:04;;;;;;;11.80;3.60;;;;;;;6.39;59.54;98281.50;4454331;32;20161;-87
2023/03/10 05:10:29;;;;;;;9.43;4.22;;;;;;;6.18;59.52;98284.91;4441955;32;20092;-87
2023/03/10 05:12:54;;;;;;;7.50;3.75;;;;;;;6.46;59.54;98275.19;4454543;32;20122;-87
2023/03/10 05:15:20;;;;;;;8.20;4.55;;;;;;;6.40;59.54;98263.34;4442320;32;20105;-89
2023/03/10 05:17:45;;;;;;;7.95;4.10;;;;;;;6.40;59.53;98268.50;4429531;32;20112;-87
2023/03/10 05:20:12;;;;;;;6.72;3.45;;;;;;;6.19;59.52;98269.34;4454900;32;20140;-86
2023/03/10 05:22:38;;;;;;;5.55;3.12;;;;;;;6.11;59.52;98267.00;4455000;32;20089;-87
2023/03/10 05:25:03;;;;;;;7.62;3.30;;;;;;;6.26;59.53;98264.75;4441106;32;20129;-90
2023/03/10 05:27:31;;;;;;;6.18;3.30;;;;;;;6.26;59.52;98275.09;4454370;32;20092;-87
2023/03/10 05:29:57;;;;;;;8.27;3.45;;;;;;;6.21;59.53;98259.78;4441172;32;20085;-88
2023/03/10 05:32:22;;;;;;;6.80;3.33;;;;;;;5.97;59.52;98265.88;4468439;32;20199;-89
2023/03/10 05:34:48;;;;;;;6.28;3.60;;;;;;;5.96;59.51;98259.03;4441344;32;20359;-88
2023/03/10 05:37:13;;;;;;;6.50;3.17;;;;;;;5.98;59.51;98252.06;4441285;32;20088;-87
2023/03/10 05:39:38;;;;;;;8.77;3.87;;;;;;;6.10;59.52;98251.56;4455620;32;20128;-87
2023/03/10 05:42:04;;;;;;;7.85;4.12;;;;;;;6.08;59.52;98251.62;4442823;32;20084;-87
2023/03/10 05:44:29;;;;;;;8.82;4.05;;;;;;;6.04;59.52;98241.47;4455998;32;20101;-87
2023/03/10 05:46:55;;;;;;;9.85;4.12;;;;;;;6.14;59.53;98245.38;4455752;32;20152;-87
2023/03/10 05:49:20;;;;;;;15.05;4.60;;;;;;;6.25;59.53;98238.09;4442829;32;20157;-87
2023/03/10 05:51:46;;;;;;;8.77;4.35;;;;;;;6.31;59.53;98243.00;4442826;32;20144;-87
2023/03/10 05:54:11;;;;;;;9.18;4.12;;;;;;;6.32;59.53;98239.50;4455427;32;20160;-88
2023/03/10 05:56:36;;;;;;;7.70;3.67;;;;;;;6.38;59.54;98235.84;4455745;32;20116;-87
2023/03/10 05:59:02;;;;;;;6.30;3.72;;;;;;;6.59;59.55;98237.59;4442880;32;20097;-87
2023/03/10 06:01:28;;;;;;;8.98;4.18;;;;;;;6.75;59.55;98228.31;4455598;32;20154;-87
2023/03/10 06:03:53;;;;;;;9.55;4.18;;;;;;;6.84;59.56;98227.09;4455635;32;20147;-88
2023/03/10 06:06:19;;;;;;;10.90;4.43;;;;;;;6.82;59.56;98223.72;4455547;32;20390;-87
2023/03/10 06:08:44;;;;;;;7.72;3.70;;;;;;;6.98;59.57;98222.19;4442227;32;20122;-87
2023/03/10 06:11:10;;;;;;;10.13;4.22;;;;;;;7.17;59.58;98209.31;4429613;32;20148;-87
2023/03/10 06:13:35;;;;;;;8.25;3.83;;;;;;;7.15;59.58;98207.72;4436475;32;20110;-89
2023/03/10 06:16:02;;;;;;;12.80;4.60;;;;;;;7.26;59.58;98216.69;4441484;32;20136;-88
2023/03/10 06:18:28;;;;;;;10.75;4.45;;;;;;;7.42;59.59;98216.03;4445118;32;20080;-88
2023/03/10 06:20:53;;;;;;;7.72;3.78;;;;;;;7.48;59.60;98218.34;4440178;32;20150;-88
2023/03/10 06:23:19;;;;;;;12.52;4.50;;;;;;;7.53;59.60;98213.78;4444719;32;20248;-88
2023/03/10 06:25:44;;;;;;;7.97;4.28;;;;;;;7.76;59.62;98216.19;4455286;32;20160;-87
2023/03/10 06:28:10;;;;;;;9.13;4.50;;;;;;;8.05;59.63;98212.31;4419369;32;20115;-88
2023/03/10 06:30:35;;;;;;;9.88;4.65;;;;;;;8.28;59.64;98204.28;4442997;32;20109;-87
2023/03/10 06:33:01;;;;;;;9.85;5.20;;;;;;;8.55;59.66;98196.97;4442095;32;20100;-87
2023/03/10 06:35:27;;;;;;;17.37;6.90;;;;;;;8.78;59.67;98195.84;4470827;32;20088;-87
2023/03/10 06:37:52;;;;;;;20.23;7.10;;;;;;;8.89;59.67;98187.50;4455398;32;20176;-87
2023/03/10 06:40:18;;;;;;;19.27;7.80;;;;;;;9.00;59.68;98189.59;4455435;32;20382;-88
2023/03/10 06:42:43;;;;;;;26.33;8.00;;;;;;;8.99;59.68;98182.69;4455081;32;20145;-87
2023/03/10 06:45:10;;;;;;;17.42;8.10;;;;;;;9.02;59.68;98187.75;4455425;32;20413;-87
2023/03/10 06:47:35;;;;;;;19.42;7.30;;;;;;;9.09;59.69;98195.16;4444913;32;20100;-87
2023/03/10 06:50:01;;;;;;;15.75;7.12;;;;;;;9.45;59.71;98178.56;4426666;32;20128;-87
2023/03/10 06:52:26;;;;;;;12.73;6.78;;;;;;;9.58;59.72;98177.03;4440146;32;20096;-87
2023/03/10 06:54:52;;;;;;;13.50;6.35;;;;;;;9.85;59.73;98182.50;4469908;32;20378;-87
2023/03/10 06:57:17;;;;;;;18.37;7.32;;;;;;;10.11;59.75;98181.91;4455181;32;20092;-87
2023/03/10 06:59:43;;;;;;;16.90;8.30;;;;;;;10.32;59.76;98173.88;4456270;32;20088;-88
2023/03/10 07:02:10;;;;;;;16.83;6.90;;;;;;;10.47;59.77;98183.44;4442545;32;20151;-88
2023/03/10 07:04:36;;;;;;;11.73;6.30;;;;;;;10.45;59.76;98182.69;4443654;32;20105;-87
2023/03/10 07:07:01;;;;;;;17.58;7.05;;;;;;;10.66;59.77;98181.47;4455998;32;20377;-88
2023/03/10 07:09:26;;;;;;;11.40;6.53;;;;;;;10.80;59.78;98178.06;4470125;32;20084;-87
2023/03/10 07:11:52;;;;;;;20.02;6.97;;;;;;;10.98;59.79;98174.38;4443078;32;20093;-88
2023/03/10 07:14:17;;;;;;;13.57;6.65;;;;;;;10.98;59.79;98171.78;4434633;32;20136;-88
2023/03/10 07:16:45;;;;;;;16.15;7.12;;;;;;;10.94;59.79;98174.66;4442296;32;20127;-88
2023/03/10 07:19:10;;;;;;;22.55;6.57;;;;;;;11.20;59.80;98173.13;4443155;32;20105;-87
2023/03/10 07:21:36;;;;;;;12.55;6.80;;;;;;;11.54;59.83;98166.69;4455332;32;20152;-88
2023/03/10 07:24:01;;;;;;;13.15;6.72;;;;;;;11.55;59.82;98170.97;4455601;32;20161;-87
2023/03/10 07:26:26;;;;;;;16.05;6.97;;;;;;;11.83;59.84;98163.19;4455172;32;20121;-87
2023/03/10 07:28:53;;;;;;;17.92;7.03;;;;;;;12.04;59.85;98158.38;4469542;32;20406;-88
2023/03/10 07:31:18;;;;;;;17.35;6.93;;;;;;;11.85;59.84;98171.75;4444708;32;20104;-88
2023/03/10 07:33:44;;;;;;;14.00;6.85;;;;;;;12.07;59.85;98168.62;4442369;32;20126;-87
2023/03/10 07:36:11;;;;;;;10.18;6.32;;;;;;;12.26;59.86;98166.50;4442135;32;20121;-88
2023/03/10 07:38:37;;;;;;;9.48;6.18;;;;;;;12.39;59.87;98157.91;4442508;32;20107;-88
2023/03/10 07:41:09;;;;;;;15.70;6.43;;;;;;;12.59;59.88;98162.69;4455033;32;20354;-88
2023/03/10 07:43:35;;;;;;;13.07;6.20;;;;;;;12.85;59.89;98153.12;4455642;32;20134;-88
2023/03/10 07:46:04;;;;;;;9.63;5.47;;;;;;;13.05;59.91;98146.56;4455618;32;20089;-88
2023/03/10 07:48:29;;;;;;;10.85;5.62;;;;;;;13.17;59.91;98138.75;4442720;32;20149;-88
2023/03/10 07:50:58;;;;;;;11.90;6.15;;;;;;;13.43;59.93;98125.66;4454824;32;20157;-87
2023/03/10 07:53:23;;;;;;;11.88;6.20;;;;;;;13.64;59.94;98129.41;4455101;32;20554;-89
2023/03/10 07:55:49;;;;;;;13.05;5.75;;;;;;;13.83;59.95;98116.69;4441981;32;20108;-88
2023/03/10 07:58:14;;;;;;;14.60;7.22;;;;;;;14.05;59.96;98120.41;4442306;32;20170;-88
2023/03/10 08:00:40;;;;;;;13.35;5.78;;;;;;;14.33;59.98;98117.44;4454198;32;20160;-88
2023/03/10 08:03:05;;;;;;;10.55;5.87;;;;;;;14.37;59.97;98118.06;4442030;32;20108;-88
2023/03/10 08:05:31;;;;;;;12.88;7.07;;;;;;;14.50;59.98;98118.87;4454921;32;20190;-88
2023/03/10 08:07:57;;;;;;;11.30;5.28;;;;;;;14.65;59.99;98111.63;4444192;32;20430;-88
2023/03/10 08:10:22;;;;;;;12.98;6.10;;;;;;;14.72;60.00;98118.94;4472112;32;20097;-88
2023/03/10 08:12:48;;;;;;;6.65;4.15;;;;;;;14.83;60.00;98118.13;4456581;32;20119;-88
2023/03/10 08:15:13;;;;;;;8.23;3.87;;;;;;;15.03;60.02;98096.50;4442936;32;20130;-88
2023/03/10 08:17:39;;;;;;;7.43;3.90;;;;;;;15.34;60.03;98081.84;4442055;32;20081;-88
2023/03/10 08:20:05;;;;;;;9.18;4.00;;;;;;;15.59;60.04;98082.56;4454908;32;20142;-88
2023/03/10 08:22:31;;;;;;;8.43;3.40;;;;;;;15.70;60.06;98074.72;4429806;32;20116;-89
2023/03/10 08:24:58;;;;;;;8.45;4.55;;;;;;;15.80;60.06;98072.19;4442151;32;20130;-88
2023/03/10 08:27:24;;;;;;;7.68;3.85;;;;;;;16.19;60.08;98079.47;4454753;32;20108;-88
2023/03/10 08:29:49;;;;;;;8.98;3.95;;;;;;;16.30;60.08;98073.31;4454960;32;20500;-88
2023/03/10 08:32:15;;;;;;;8.57;3.37;;;;;;;16.36;60.08;98069.38;4454901;32;20123;-88
2023/03/10 08:34:41;;;;;;;9.63;4.35;;;;;;;16.56;60.09;98063.28;4458764;32;20194;-88
2023/03/10 08:37:07;;;;;;;8.88;4.03;;;;;;;16.77;60.11;98056.28;4455118;32;20085;-88
2023/03/10 08:39:33;;;;;;;9.63;4.43;;;;;;;16.90;60.11;98048.22;4442063;32;20128;-88
2023/03/10 08:41:58;;;;;;;7.68;4.87;;;;;;;17.00;60.12;98049.06;4429094;32;20118;-88
2023/03/10 08:44:23;;;;;;;9.57;4.85;;;;;;;17.10;60.13;98055.22;4441611;32;20150;-88
2023/03/10 08:46:49;;;;;;;9.85;4.80;;;;;;;17.07;60.11;98041.53;4441799;32;20412;-88
2023/03/10 08:49:15;;;;;;;9.55;4.60;;;;;;;17.24;60.12;98050.56;4441686;32;20096;-88
2023/03/10 08:51:41;;;;;;;8.98;4.35;;;;;;;17.32;60.13;98046.34;4454776;32;20092;-88
2023/03/10 08:54:06;;;;;;;5.28;3.50;;;;;;;17.32;60.14;98045.50;4455117;32;20119;-88
2023/03/10 08:56:32;;;;;;;7.80;4.55;;;;;;;17.47;60.15;98031.00;4442043;32;20523;-89
2023/03/10 08:58:57;;;;;;;8.20;4.12;;;;;;;17.67;60.15;98037.16;4454799;32;20131;-88
2023/03/10 09:01:23;;;;;;;10.65;4.50;;;;;;;17.68;60.15;98023.06;4442278;32;20139;-88
2023/03/10 09:03:49;;;;;;;7.57;4.15;;;;;;;17.78;60.16;98029.19;4441915;32;20089;-88
2023/03/10 09:06:14;;;;;;;8.45;4.35;;;;;;;17.77;60.16;98028.34;4442067;32;20399;-88
2023/03/10 09:08:40;;;;;;;7.78;4.20;;;;;;;18.00;60.17;98022.84;4454794;32;20127;-88
2023/03/10 09:11:06;;;;;;;9.65;3.53;;;;;;;18.12;60.18;98016.44;4468956;32;20093;-88
2023/03/10 09:13:31;;;;;;;7.80;3.85;;;;;;;18.27;60.18;98024.78;4441867;32;20089;-88
2023/03/10 09:15:56;;;;;;;12.00;4.78;;;;;;;18.38;60.20;98021.97;4468789;32;20388;-88
2023/03/10 09:18:22;;;;;;;10.90;4.82;;;;;;;18.42;60.19;98020.72;4454560;32;20395;-89
2023/03/10 09:20:47;;;;;;;8.95;5.22;;;;;;;18.25;60.19;98021.44;4441652;32;20220;-88
2023/03/10 09:23:13;;;;;;;7.28;4.50;;;;;;;18.02;60.17;98005.09;4468759;32;20093;-88
2023/03/10 09:25:39;;;;;;;11.80;5.35;;;;;;;18.20;60.18;98005.22;4441635;32;20096;-88
2023/03/10 09:28:06;;;;;;;13.02;4.97;;;;;;;18.24;60.19;98004.00;4441537;32;20385;-89
2023/03/10 09:30:36;;;;;;;14.68;5.93;;;;;;;18.14;60.18;97995.25;4441773;32;20142;-88
2023/03/10 09:33:04;;;;;;;14.13;6.93;;;;;;;18.21;60.18;97996.34;4442391;32;20434;-89
2023/03/10 09:35:29;;;;;;;10.18;5.82;;;;;;;18.05;60.17;97987.22;4441725;32;20401;-88
2023/03/10 09:37:55;;;;;;;12.25;6.75;;;;;;;17.98;60.16;97988.75;4454291;32;20132;-88
2023/03/10 09:40:21;;;;;;;14.13;6.72;;;;;;;18.07;60.17;97987.06;4454220;32;20167;-88
2023/03/10 09:42:55;;;;;;;12.73;5.85;;;;;;;18.34;60.19;97983.72;4454428;32;20222;-88
2023/03/10 09:45:29;;;;;;;10.98;6.32;;;;;;;18.40;60.20;97972.63;4454351;32;20442;-88
2023/03/10 09:48:03;;;;;;;10.38;5.70;;;;;;;18.56;60.21;97972.87;4468415;32;20170;-88
2023/03/10 09:50:38;;;;;;;13.88;6.87;;;;;;;18.68;60.20;97963.84;4456896;32;20093;-88
2023/03/10 09:53:39;;;;;;;12.65;7.20;;;;;;;18.78;60.22;97970.91;4460205;32;20163;-88
2023/03/10 09:56:13;;;;;;;13.45;7.10;;;;;;;18.88;60.22;97966.41;4433097;32;20081;-88
2023/03/10 09:58:41;;;;;;;13.18;7.12;;;;;;;18.76;60.21;97962.31;4454058;32;20100;-88
2023/03/10 10:01:15;;;;;;;15.65;7.10;;;;;;;18.77;60.22;97959.53;4428568;32;20116;-89
2023/03/10 10:03:43;;;;;;;11.55;6.30;;;;;;;19.00;60.22;97952.09;4441609;32;20080;-88
2023/03/10 10:06:13;;;;;;;10.15;5.85;;;;;;;19.17;60.24;97945.22;4428509;32;20107;-88
2023/03/10 10:08:54;;;;;;;9.07;5.62;;;;;;;19.11;60.23;97940.50;4440912;32;20210;-88
2023/03/10 10:11:19;;;;;;;10.70;5.10;;;;;;;19.17;60.24;97943.41;4440987;32;20123;-88
2023/03/10 10:13:45;;;;;;;7.93;5.05;;;;;;;19.30;60.24;97945.69;4457796;32;20148;-88
2023/03/10 10:16:34;;;;;;;12.07;5.10;;;;;;;19.53;60.25;97943.44;4453727;32;20077;-89
2023/03/10 10:19:04;;;;;;;12.90;4.82;;;;;;;19.80;60.27;97929.38;4455573;32;20155;-88
2023/03/10 10:21:35;;;;;;;10.05;4.97;;;;;;;19.75;60.26;97926.38;4453245;32;20113;-88
2023/03/10 10:24:00;;;;;;;8.30;5.30;;;;;;;19.90;60.27;97915.13;4454338;32;20115;-89
2023/03/10 10:26:26;;;;;;;12.68;5.93;;;;;;;20.00;60.27;97898.37;4455407;32;20113;-88
2023/03/10 10:28:56;;;;;;;12.57;5.93;;;;;;;19.91;60.27;97902.75;4443099;32;20169;-89
2023/03/10 10:31:26;;;;;;;;;;;;;;;20.15;60.30;97895.03;4443475;32;20505;-89
2023/03/10 10:34:06;;;;;;;11.45;5.22;;;;;;;20.52;60.31;97881.56;4456166;32;20051;-88
2023/03/10 10:36:50;;;;;;;8.63;4.82;;;;;;;20.81;60.33;97883.00;4442732;32;20115;-89
2023/03/10 10:39:43;;;;;;;9.20;4.45;;;;;;;21.07;60.33;97883.81;4442779;32;20131;-89
2023/03/10 10:42:26;;;;;;;7.05;3.30;;;;;;;21.08;60.34;97876.69;4457743;32;20105;-89
2023/03/10 10:44:53;;;;;;;7.57;2.65;;;;;;;21.22;60.34;97862.81;4443109;32;20128;-87
2023/03/10 10:47:33;;;;;;;5.87;2.45;;;;;;;21.19;60.34;97879.03;4442869;32;20097;-88
2023/03/10 10:50:31;;;;;;;6.60;2.15;;;;;;;21.13;60.34;97869.91;4456105;32;20183;-88
2023/03/10 10:53:15;;;;;;;8.40;1.75;;;;;;;21.27;60.35;97860.53;4447020;32;20279;-88
2023/03/10 10:55:41;;;;;;;5.45;2.28;;;;;;;21.29;60.34;97868.31;4454967;32;20492;-88
2023/03/10 10:58:27;;;;;;;7.28;2.37;;;;;;;21.38;60.35;97852.31;4456054;32;20080;-88
2023/03/10 11:01:20;;;;;;;4.45;1.77;;;;;;;21.51;60.36;97846.50;4442788;32;20130;-88
2023/03/10 11:03:49;;;;;;;3.25;1.60;;;;;;;21.72;60.37;97838.91;4469870;32;20092;-88
2023/03/10 11:06:14;;;;;;;6.03;2.30;;;;;;;21.93;60.38;97833.09;4443840;32;20084;-89
2023/03/10 11:08:43;;;;;;;6.80;2.47;;;;;;;22.05;60.39;97825.69;4469562;32;20123;-88
2023/03/10 11:11:30;;;;;;;4.22;2.12;;;;;;;21.98;60.38;97827.31;4430426;32;20135;-88
2023/03/10 11:14:02;;;;;;;6.68;2.35;;;;;;;22.02;60.39;97808.28;4455668;32;20164;-88
2023/03/10 11:16:42;;;;;;;4.55;2.03;;;;;;;22.11;60.39;97802.97;4455306;32;20436;-87
2023/03/10 11:19:20;;;;;;;6.45;2.00;;;;;;;22.20;60.40;97805.44;4457146;32;20151;-87
2023/03/10 11:21:49;;;;;;;3.78;2.20;;;;;;;22.28;60.40;97797.47;4456727;32;20097;-88
2023/03/10 11:24:40;;;;;;;4.37;1.80;;;;;;;22.28;60.40;97796.66;4442979;32;20117;-88
2023/03/10 11:27:15;;;;;;;6.53;2.37;;;;;;;22.36;60.40;97793.97;4460015;32;20213;-88
2023/03/10 11:30:03;;;;;;;5.07;1.95;;;;;;;22.39;60.40;97792.78;4442624;32;20633;-87
2023/03/10 11:32:47;;;;;;;2.85;1.50;;;;;;;22.55;60.41;97777.66;4455172;32;20173;-86
2023/03/10 11:35:26;;;;;;;8.38;1.70;;;;;;;22.49;60.42;97774.87;4469560;32;20156;-87
2023/03/10 11:38:20;;;;;;;6.70;1.70;;;;;;;22.50;60.41;97768.56;4442266;32;20112;-87